createdAt,value
2022-10-26T00:01:21.708Z,16.80
2022-10-26T00:03:49.612Z,16.60
2022-10-26T00:06:21.434Z,14.50
2022-10-26T00:08:49.636Z,17.00
2022-10-26T00:11:19.286Z,17.80
2022-10-26T00:13:48.139Z,15.60
2022-10-26T00:16:25.360Z,15.40
2022-10-26T00:18:53.701Z,17.70
2022-10-26T00:21:21.496Z,18.00
2022-10-26T00:23:49.098Z,17.00
2022-10-26T00:26:16.703Z,17.00
2022-10-26T00:28:44.392Z,22.60
2022-10-26T00:31:15.113Z,17.30
2022-10-26T00:33:42.876Z,18.70
2022-10-26T00:36:13.958Z,17.80
2022-10-26T00:38:46.145Z,18.20
2022-10-26T00:41:24.302Z,16.10
2022-10-26T00:43:53.805Z,18.30
2022-10-26T00:46:27.823Z,20.30
2022-10-26T00:49:01.575Z,18.50
2022-10-26T00:51:52.023Z,20.70
2022-10-26T00:54:21.253Z,20.40
2022-10-26T00:56:53.244Z,23.90
2022-10-26T00:59:23.005Z,21.20
2022-10-26T01:01:52.186Z,18.50
2022-10-26T01:04:20.474Z,20.50
2022-10-26T01:06:49.104Z,21.10
2022-10-26T01:09:18.791Z,22.60
2022-10-26T01:11:46.740Z,24.00
2022-10-26T01:14:19.090Z,21.90
2022-10-26T01:17:04.771Z,23.90
2022-10-26T01:19:57.465Z,23.30
2022-10-26T01:23:07.820Z,21.10
2022-10-26T01:26:00.168Z,20.80
2022-10-26T01:29:18.767Z,23.80
2022-10-26T01:32:08.523Z,22.90
2022-10-26T01:34:47.895Z,21.40
2022-10-26T01:37:24.322Z,22.20
2022-10-26T01:40:06.786Z,22.60
2022-10-26T01:42:38.800Z,23.20
2022-10-26T01:45:10.102Z,25.80
2022-10-26T01:47:39.619Z,25.20
2022-10-26T01:50:10.154Z,28.60
2022-10-26T01:52:37.964Z,25.30
2022-10-26T01:55:47.280Z,27.90
2022-10-26T01:59:01.841Z,29.00
2022-10-26T02:01:49.358Z,25.20
2022-10-26T02:05:00.681Z,24.00
2022-10-26T02:07:41.151Z,24.50
2022-10-26T02:10:33.855Z,23.70
2022-10-26T02:13:26.484Z,24.70
2022-10-26T02:16:20.054Z,21.30
2022-10-26T02:19:24.679Z,26.10
2022-10-26T02:22:09.733Z,22.80
2022-10-26T02:24:38.546Z,19.20
2022-10-26T02:27:15.346Z,20.80
2022-10-26T02:29:44.168Z,19.80
2022-10-26T02:32:13.622Z,20.70
2022-10-26T02:34:47.102Z,17.60
2022-10-26T02:37:20.285Z,19.30
2022-10-26T02:39:51.735Z,19.80
2022-10-26T02:42:20.073Z,18.00
2022-10-26T02:44:52.109Z,16.50
2022-10-26T02:47:21.196Z,18.10
2022-10-26T02:49:48.861Z,15.50
2022-10-26T02:52:31.530Z,16.20
2022-10-26T02:55:20.353Z,17.70
2022-10-26T02:57:55.899Z,16.40
2022-10-26T03:00:23.530Z,15.40
2022-10-26T03:02:57.311Z,13.30
2022-10-26T03:05:28.974Z,12.50
2022-10-26T03:07:56.952Z,14.20
2022-10-26T03:10:25.763Z,13.30
2022-10-26T03:12:53.442Z,14.20
2022-10-26T03:15:21.826Z,12.10
2022-10-26T03:17:49.588Z,12.50
2022-10-26T03:20:17.521Z,11.80
2022-10-26T03:22:48.230Z,10.60
2022-10-26T03:25:16.158Z,13.00
2022-10-26T03:27:44.169Z,11.80
2022-10-26T03:30:11.890Z,12.90
2022-10-26T03:32:39.793Z,12.60
2022-10-26T03:35:07.898Z,12.70
2022-10-26T03:37:35.478Z,13.50
2022-10-26T03:40:03.249Z,14.50
2022-10-26T03:42:36.109Z,12.10
2022-10-26T03:45:05.532Z,14.10
2022-10-26T03:47:33.286Z,13.40
2022-10-26T03:50:00.941Z,16.40
2022-10-26T03:52:28.538Z,12.70
2022-10-26T03:54:56.159Z,13.40
2022-10-26T03:57:23.828Z,18.20
2022-10-26T03:59:51.381Z,14.00
2022-10-26T04:02:18.904Z,14.50
2022-10-26T04:04:46.516Z,15.90
2022-10-26T04:07:14.151Z,12.80
2022-10-26T04:09:41.806Z,17.40
2022-10-26T04:12:09.404Z,17.90
2022-10-26T04:14:36.972Z,16.60
2022-10-26T04:17:04.545Z,13.60
2022-10-26T04:19:32.162Z,13.40
2022-10-26T04:21:59.736Z,19.60
2022-10-26T04:24:27.364Z,19.40
2022-10-26T04:26:54.981Z,26.00
2022-10-26T04:29:22.561Z,20.80
2022-10-26T04:31:50.110Z,25.10
2022-10-26T04:34:17.796Z,27.50
2022-10-26T04:36:45.403Z,25.10
2022-10-26T04:39:15.776Z,24.40
2022-10-26T04:41:43.443Z,25.00
2022-10-26T04:44:11.059Z,19.00
2022-10-26T04:46:38.656Z,17.50
2022-10-26T04:49:06.211Z,17.90
2022-10-26T04:51:33.813Z,15.80
2022-10-26T04:54:03.192Z,13.00
2022-10-26T04:56:30.968Z,18.60
2022-10-26T04:58:58.562Z,15.30
2022-10-26T05:01:26.229Z,16.80
2022-10-26T05:03:54.860Z,17.10
2022-10-26T05:06:22.892Z,14.60
2022-10-26T05:08:50.582Z,19.10
2022-10-26T05:11:18.180Z,16.40
2022-10-26T05:13:49.170Z,16.80
2022-10-26T05:16:16.746Z,16.60
2022-10-26T05:18:48.356Z,19.00
2022-10-26T05:21:19.324Z,20.20
2022-10-26T05:23:55.293Z,18.00
2022-10-26T05:26:24.174Z,21.00
2022-10-26T05:28:53.216Z,20.00
2022-10-26T05:31:21.699Z,21.40
2022-10-26T05:33:52.624Z,21.80
2022-10-26T05:36:20.839Z,22.50
2022-10-26T05:38:48.900Z,22.00
2022-10-26T05:41:16.480Z,17.20
2022-10-26T05:43:46.878Z,18.10
2022-10-26T05:46:14.483Z,20.20
2022-10-26T05:48:42.472Z,19.60
2022-10-26T05:51:12.447Z,19.30
2022-10-26T05:53:40.018Z,17.30
2022-10-26T05:56:21.023Z,18.70
2022-10-26T05:58:49.350Z,18.30
2022-10-26T06:01:34.397Z,22.10
2022-10-26T06:04:29.437Z,20.40
2022-10-26T06:06:58.873Z,27.00
2022-10-26T06:09:26.796Z,23.40
2022-10-26T06:11:54.884Z,22.40
2022-10-26T06:14:23.294Z,18.90
2022-10-26T06:17:35.468Z,18.20
2022-10-26T06:20:18.719Z,19.50
2022-10-26T06:23:05.460Z,19.20
2022-10-26T06:25:55.128Z,17.20
2022-10-26T06:28:50.898Z,24.50
2022-10-26T06:31:18.856Z,27.50
2022-10-26T06:33:46.607Z,24.00
2022-10-26T06:36:28.707Z,24.30
2022-10-26T06:39:04.667Z,21.50
2022-10-26T06:41:35.840Z,21.90
2022-10-26T06:44:05.836Z,22.40
2022-10-26T06:46:46.093Z,24.00
2022-10-26T06:49:28.062Z,26.10
2022-10-26T06:52:03.387Z,24.60
2022-10-26T06:54:54.703Z,24.40
2022-10-26T06:57:28.249Z,27.00
2022-10-26T07:00:00.874Z,25.00
2022-10-26T07:02:29.236Z,25.00
2022-10-26T07:04:57.565Z,21.40
2022-10-26T07:07:29.364Z,17.20
2022-10-26T07:09:56.981Z,21.60
2022-10-26T07:12:25.413Z,19.50
2022-10-26T07:14:53.122Z,21.80
2022-10-26T07:17:20.758Z,26.70
2022-10-26T07:19:48.327Z,18.50
2022-10-26T07:22:15.947Z,17.20
2022-10-26T07:24:43.591Z,20.00
2022-10-26T07:27:11.273Z,22.60
2022-10-26T07:29:39.709Z,21.20
2022-10-26T07:32:08.579Z,20.10
2022-10-26T07:34:36.203Z,21.60
2022-10-26T07:37:03.854Z,20.60
2022-10-26T07:39:32.809Z,24.90
2022-10-26T07:42:00.499Z,19.70
2022-10-26T07:44:28.147Z,24.60
2022-10-26T07:46:55.810Z,23.20
2022-10-26T07:49:26.175Z,25.00
2022-10-26T07:51:55.744Z,20.00
2022-10-26T07:54:23.484Z,21.50
2022-10-26T07:56:51.150Z,19.00
2022-10-26T07:59:18.781Z,17.10
2022-10-26T08:01:46.548Z,17.20
2022-10-26T08:04:15.769Z,16.50
2022-10-26T08:06:43.522Z,14.90
2022-10-26T08:09:11.107Z,18.10
2022-10-26T08:11:38.747Z,19.60
2022-10-26T08:14:06.456Z,17.50
2022-10-26T08:16:35.062Z,15.40
2022-10-26T08:19:02.839Z,12.00
2022-10-26T08:21:40.163Z,16.90
2022-10-26T08:24:08.718Z,15.20
2022-10-26T08:26:36.400Z,16.40
2022-10-26T08:29:03.991Z,14.80
2022-10-26T08:31:31.720Z,14.10
2022-10-26T08:33:59.777Z,15.80
2022-10-26T08:36:28.873Z,19.50
2022-10-26T08:38:56.574Z,13.00
2022-10-26T08:41:56.365Z,28.70
2022-10-26T08:44:33.043Z,18.60
2022-10-26T08:50:23.848Z,25.00
2022-10-26T08:53:21.140Z,14.80
2022-10-26T08:56:03.865Z,11.40
2022-10-26T08:58:56.377Z,12.60
2022-10-26T09:01:24.145Z,13.70
2022-10-26T09:03:52.027Z,18.80
2022-10-26T09:06:57.250Z,12.80
2022-10-26T09:10:08.300Z,10.50
2022-10-26T09:13:11.427Z,9.90
2022-10-26T09:16:00.865Z,11.70
2022-10-26T09:18:57.800Z,8.30
2022-10-26T09:22:01.400Z,8.70
2022-10-26T09:24:36.559Z,9.30
2022-10-26T09:27:34.631Z,14.40
2022-10-26T09:30:14.530Z,8.10
2022-10-26T09:32:48.071Z,12.00
2022-10-26T09:35:47.395Z,7.60
2022-10-26T09:38:20.345Z,7.90
2022-10-26T09:41:01.601Z,8.10
2022-10-26T09:43:45.178Z,6.60
2022-10-26T09:46:27.221Z,6.10
2022-10-26T09:49:05.931Z,8.50
2022-10-26T09:51:42.419Z,8.30
2022-10-26T09:54:20.733Z,14.00
2022-10-26T09:56:56.522Z,11.70
2022-10-26T09:59:26.279Z,13.30
2022-10-26T10:01:54.820Z,11.30
2022-10-26T10:04:24.175Z,11.10
2022-10-26T10:07:14.050Z,6.00
2022-10-26T10:09:41.592Z,9.60
2022-10-26T10:12:21.022Z,10.30
2022-10-26T10:14:59.506Z,12.70
2022-10-26T10:17:27.792Z,10.70
2022-10-26T10:20:12.733Z,9.50
2022-10-26T10:22:55.017Z,7.90
2022-10-26T10:25:37.169Z,8.50
2022-10-26T10:28:31.028Z,7.80
2022-10-26T10:31:03.338Z,7.30
2022-10-26T10:33:40.310Z,9.10
2022-10-26T10:36:15.384Z,5.10
2022-10-26T10:38:46.436Z,9.40
2022-10-26T10:41:22.162Z,7.30
2022-10-26T10:43:55.592Z,7.00
2022-10-26T10:46:27.372Z,7.20
2022-10-26T10:49:17.457Z,4.30
2022-10-26T10:51:44.979Z,6.10
2022-10-26T10:54:39.072Z,5.90
2022-10-26T10:57:35.871Z,5.10
2022-10-26T11:00:10.188Z,5.60
2022-10-26T11:03:02.800Z,7.00
2022-10-26T11:06:01.836Z,3.90
2022-10-26T11:09:02.590Z,6.10
2022-10-26T11:11:48.812Z,10.40
2022-10-26T11:14:23.633Z,6.50
2022-10-26T11:17:18.229Z,4.10
2022-10-26T11:20:22.513Z,6.40
2022-10-26T11:22:53.401Z,4.50
2022-10-26T11:25:36.922Z,6.30
2022-10-26T11:28:39.666Z,5.50
2022-10-26T11:31:23.347Z,6.50
2022-10-26T11:34:21.669Z,5.40
2022-10-26T11:36:59.894Z,8.00
2022-10-26T11:39:41.186Z,8.20
2022-10-26T11:42:21.353Z,5.40
2022-10-26T11:45:09.111Z,5.40
2022-10-26T11:47:46.297Z,4.90
2022-10-26T11:50:30.666Z,6.10
2022-10-26T11:53:19.460Z,4.40
2022-10-26T11:55:54.531Z,6.60
2022-10-26T11:58:28.339Z,4.70
2022-10-26T12:01:10.575Z,6.20
2022-10-26T12:03:46.513Z,7.00
2022-10-26T12:06:20.325Z,4.40
2022-10-26T12:08:57.880Z,4.80
2022-10-26T12:11:47.585Z,4.20
2022-10-26T12:14:53.670Z,4.40
2022-10-26T12:17:50.813Z,5.40
2022-10-26T12:20:46.062Z,6.40
2022-10-26T12:23:23.137Z,3.80
2022-10-26T12:26:50.226Z,5.50
2022-10-26T12:29:49.382Z,4.20
2022-10-26T12:32:32.274Z,5.90
2022-10-26T12:35:04.612Z,7.90
2022-10-26T12:37:37.830Z,6.10
2022-10-26T12:40:33.574Z,4.10
2022-10-26T12:43:30.647Z,8.00
2022-10-26T12:46:13.612Z,3.80
2022-10-26T12:48:48.101Z,5.30
2022-10-26T12:51:21.899Z,3.50
2022-10-26T12:54:31.313Z,4.40
2022-10-26T12:57:37.662Z,6.80
2022-10-26T13:00:13.128Z,4.90
2022-10-26T13:03:21.294Z,7.20
2022-10-26T13:06:48.534Z,4.70
2022-10-26T13:09:22.247Z,3.90
2022-10-26T13:11:56.377Z,3.40
2022-10-26T13:14:34.269Z,5.70
2022-10-26T13:17:06.112Z,4.00
2022-10-26T13:19:46.996Z,5.40
2022-10-26T13:22:22.701Z,3.90
2022-10-26T13:25:02.214Z,5.20
2022-10-26T13:27:32.750Z,6.00
2022-10-26T13:30:03.444Z,6.10
2022-10-26T13:32:54.754Z,5.30
2022-10-26T13:35:24.988Z,4.60
2022-10-26T13:37:56.723Z,4.90
2022-10-26T13:40:29.595Z,3.80
2022-10-26T13:43:03.481Z,8.50
2022-10-26T13:45:49.432Z,7.40
2022-10-26T13:48:26.911Z,3.40
2022-10-26T13:51:00.765Z,6.10
2022-10-26T13:53:37.558Z,8.90
2022-10-26T13:56:35.220Z,6.40
2022-10-26T13:59:10.336Z,5.70
2022-10-26T14:01:38.659Z,5.40
2022-10-26T14:04:27.987Z,6.10
2022-10-26T14:06:56.323Z,7.00
2022-10-26T14:09:24.300Z,6.20
2022-10-26T14:12:02.482Z,6.80
2022-10-26T14:14:36.020Z,8.50
2022-10-26T14:17:05.383Z,8.20
2022-10-26T14:19:39.227Z,9.60
2022-10-26T14:22:07.706Z,10.40
2022-10-26T14:24:47.349Z,9.90
2022-10-26T14:27:22.235Z,8.60
2022-10-26T14:30:22.034Z,7.20
2022-10-26T14:32:43.210Z,7.50
2022-10-26T14:35:14.992Z,10.90
2022-10-26T14:37:54.167Z,8.80
2022-10-26T14:40:33.997Z,7.70
2022-10-26T14:43:05.635Z,7.40
2022-10-26T14:45:54.352Z,8.30
2022-10-26T14:48:34.109Z,10.00
2022-10-26T14:51:18.765Z,9.50
2022-10-26T14:53:52.794Z,9.20
2022-10-26T14:56:35.754Z,10.60
2022-10-26T14:59:33.255Z,12.80
2022-10-26T15:02:23.662Z,11.70
2022-10-26T15:05:35.733Z,13.30
2022-10-26T15:08:03.799Z,8.00
2022-10-26T15:10:37.551Z,10.40
2022-10-26T15:13:27.903Z,10.40
2022-10-26T15:16:09.633Z,13.20
2022-10-26T15:18:38.775Z,13.10
2022-10-26T15:21:34.301Z,15.60
2022-10-26T15:24:03.881Z,15.40
2022-10-26T15:26:32.122Z,14.40
2022-10-26T15:28:59.727Z,17.90
2022-10-26T15:31:27.358Z,15.10
2022-10-26T15:33:54.835Z,14.80
2022-10-26T15:36:27.517Z,15.80
2022-10-26T15:38:55.705Z,14.40
2022-10-26T15:41:29.999Z,12.20
2022-10-26T15:44:01.563Z,14.20
2022-10-26T15:46:33.107Z,16.80
2022-10-26T15:49:05.881Z,13.90
2022-10-26T15:51:34.952Z,13.90
2022-10-26T15:54:04.938Z,14.10
2022-10-26T15:56:33.216Z,17.70
2022-10-26T15:59:00.792Z,14.80
2022-10-26T16:01:29.616Z,18.40
2022-10-26T16:03:57.291Z,17.60
2022-10-26T16:06:34.261Z,22.10
2022-10-26T16:09:06.137Z,20.30
2022-10-26T16:11:34.936Z,20.70
2022-10-26T16:14:03.862Z,18.00
2022-10-26T16:16:32.298Z,19.80
2022-10-26T16:19:25.461Z,23.10
2022-10-26T16:21:51.453Z,24.40
2022-10-26T16:24:19.542Z,24.30
2022-10-26T16:26:47.300Z,27.10
2022-10-26T16:29:14.909Z,29.40
2022-10-26T16:31:42.519Z,29.70
2022-10-26T16:34:10.082Z,27.60
2022-10-26T16:36:38.633Z,25.30
2022-10-26T16:39:07.693Z,23.50
2022-10-26T16:41:35.405Z,22.40
2022-10-26T16:44:03.273Z,23.60
2022-10-26T16:46:31.049Z,21.30
2022-10-26T16:48:59.710Z,21.80
2022-10-26T16:51:28.979Z,22.30
2022-10-26T16:53:57.409Z,20.30
2022-10-26T16:56:30.255Z,24.60
2022-10-26T16:58:58.240Z,32.40
2022-10-26T17:01:26.353Z,27.40
2022-10-26T17:03:54.324Z,23.70
2022-10-26T17:06:23.017Z,26.30
2022-10-26T17:08:50.719Z,22.20
2022-10-26T17:11:21.424Z,23.10
2022-10-26T17:13:54.775Z,21.90
2022-10-26T17:16:24.304Z,26.70
2022-10-26T17:18:53.741Z,25.90
2022-10-26T17:21:31.237Z,25.80
2022-10-26T17:23:59.165Z,23.30
2022-10-26T17:26:27.125Z,25.20
2022-10-26T17:28:57.613Z,31.00
2022-10-26T17:31:25.984Z,27.50
2022-10-26T17:33:53.986Z,31.30
2022-10-26T17:36:25.668Z,32.00
2022-10-26T17:38:57.460Z,55.40
2022-10-26T17:41:25.482Z,78.90
2022-10-26T17:43:53.795Z,72.90
2022-10-26T17:46:25.525Z,83.00
2022-10-26T17:48:56.213Z,85.00
2022-10-26T17:51:25.141Z,79.90
2022-10-26T17:53:54.370Z,61.20
2022-10-26T17:56:25.341Z,48.60
2022-10-26T17:59:00.043Z,39.70
2022-10-26T18:01:28.218Z,35.70
2022-10-26T18:03:55.915Z,32.80
2022-10-26T18:06:24.793Z,30.90
2022-10-26T18:08:52.645Z,33.10
2022-10-26T18:11:26.986Z,37.40
2022-10-26T18:13:56.400Z,37.20
2022-10-26T18:16:27.586Z,46.70
2022-10-26T18:19:02.092Z,39.20
2022-10-26T18:21:38.621Z,37.30
2022-10-26T18:24:07.753Z,32.10
2022-10-26T18:26:36.386Z,29.10
2022-10-26T18:29:05.795Z,33.10
2022-10-26T18:31:37.515Z,32.20
2022-10-26T18:34:06.802Z,30.20
2022-10-26T18:36:34.566Z,29.60
2022-10-26T18:39:02.404Z,30.50
2022-10-26T18:41:30.207Z,31.40
2022-10-26T18:43:59.018Z,31.70
2022-10-26T18:46:30.366Z,36.00
2022-10-26T18:49:00.924Z,42.60
2022-10-26T18:51:34.595Z,35.10
2022-10-26T18:54:03.621Z,36.30
2022-10-26T18:56:31.514Z,43.80
2022-10-26T18:59:00.409Z,54.10
2022-10-26T19:01:34.192Z,53.60
2022-10-26T19:04:07.001Z,57.40
2022-10-26T19:06:40.805Z,47.50
2022-10-26T19:09:10.249Z,51.10
2022-10-26T19:11:38.733Z,42.00
2022-10-26T19:14:07.764Z,37.20
2022-10-26T19:16:52.393Z,43.70
2022-10-26T19:19:20.837Z,42.20
2022-10-26T19:21:49.985Z,36.50
2022-10-26T19:24:23.324Z,38.30
2022-10-26T19:26:52.074Z,40.70
2022-10-26T19:29:20.652Z,38.80
2022-10-26T19:31:53.173Z,39.50
2022-10-26T19:34:21.385Z,45.30
2022-10-26T19:36:49.166Z,46.70
2022-10-26T19:39:18.016Z,42.30
2022-10-26T19:41:47.022Z,39.10
2022-10-26T19:44:15.799Z,28.00
2022-10-26T19:46:44.344Z,39.60
2022-10-26T19:49:17.619Z,28.70
2022-10-26T19:51:45.382Z,34.70
2022-10-26T19:54:12.910Z,34.40
2022-10-26T19:56:40.571Z,31.40
2022-10-26T19:59:10.736Z,35.00
2022-10-26T20:01:39.367Z,23.90
2022-10-26T20:04:07.321Z,25.60
2022-10-26T20:06:35.283Z,30.20
2022-10-26T20:09:03.994Z,24.10
2022-10-26T20:11:36.717Z,30.50
2022-10-26T20:14:07.376Z,29.60
2022-10-26T20:16:34.984Z,28.70
2022-10-26T20:19:03.333Z,28.60
2022-10-26T20:21:32.008Z,30.50
2022-10-26T20:23:59.956Z,32.00
2022-10-26T20:26:28.602Z,29.50
2022-10-26T20:28:56.744Z,28.40
2022-10-26T20:31:24.513Z,33.70
2022-10-26T20:33:52.809Z,35.60
2022-10-26T20:36:21.490Z,32.00
2022-10-26T20:38:49.729Z,34.20
2022-10-26T20:41:18.437Z,38.60
2022-10-26T20:43:46.692Z,32.50
2022-10-26T20:46:26.675Z,33.40
2022-10-26T20:48:55.223Z,36.00
2022-10-26T20:52:15.400Z,35.60
2022-10-26T20:54:52.702Z,32.60
2022-10-26T20:57:28.551Z,29.10
2022-10-26T21:00:09.022Z,29.60
2022-10-26T21:02:36.827Z,33.60
2022-10-26T21:05:05.272Z,32.50
2022-10-26T21:07:32.868Z,33.60
2022-10-26T21:10:00.434Z,36.10
2022-10-26T21:12:28.015Z,46.10
2022-10-26T21:14:55.583Z,41.40
2022-10-26T21:17:23.224Z,39.20
2022-10-26T21:19:50.817Z,40.30
2022-10-26T21:22:18.371Z,31.80
2022-10-26T21:24:46.308Z,26.30
2022-10-26T21:27:14.144Z,27.90
2022-10-26T21:29:42.049Z,29.90
2022-10-26T21:32:10.027Z,27.40
2022-10-26T21:34:37.632Z,26.30
2022-10-26T21:37:05.228Z,30.20
2022-10-26T21:39:32.809Z,35.60
2022-10-26T21:42:00.618Z,32.00
2022-10-26T21:44:43.555Z,33.10
2022-10-26T21:47:12.806Z,31.00
2022-10-26T21:52:09.248Z,35.40
2022-10-26T21:54:36.822Z,33.40
2022-10-26T21:57:04.642Z,33.20
2022-10-26T21:59:32.281Z,38.30
2022-10-26T22:01:59.986Z,37.60
2022-10-26T22:04:41.668Z,34.60
2022-10-26T22:07:09.310Z,35.60
2022-10-26T22:09:44.881Z,34.40
2022-10-26T22:12:24.567Z,34.80
2022-10-26T22:14:52.155Z,36.10
2022-10-26T22:17:19.652Z,38.60
2022-10-26T22:19:47.190Z,36.70
2022-10-26T22:22:14.785Z,34.50
2022-10-26T22:24:42.588Z,35.20
2022-10-26T22:27:10.088Z,34.70
2022-10-26T22:29:37.736Z,33.80
2022-10-26T22:32:05.614Z,33.30
2022-10-26T22:34:33.242Z,36.90
2022-10-26T22:37:00.841Z,32.70
2022-10-26T22:39:28.402Z,32.00
2022-10-26T22:41:55.993Z,30.60
2022-10-26T22:44:23.572Z,33.40
2022-10-26T22:46:51.109Z,34.50
2022-10-26T22:49:18.707Z,33.00
2022-10-26T22:51:46.317Z,28.70
2022-10-26T22:54:14.199Z,31.90
2022-10-26T22:56:41.852Z,30.60
2022-10-26T22:59:09.387Z,32.40
2022-10-26T23:01:39.724Z,31.60
2022-10-26T23:04:11.504Z,27.10
2022-10-26T23:06:40.076Z,27.20
2022-10-26T23:09:07.948Z,28.10
2022-10-26T23:11:35.622Z,29.70
2022-10-26T23:14:03.625Z,30.40
2022-10-26T23:16:31.722Z,31.90
2022-10-26T23:18:59.808Z,29.40
2022-10-26T23:21:29.049Z,33.10
2022-10-26T23:23:58.043Z,28.80
2022-10-26T23:26:25.834Z,25.90
2022-10-26T23:28:53.510Z,29.20
2022-10-26T23:31:27.957Z,29.70
2022-10-26T23:33:56.604Z,34.10
2022-10-26T23:36:25.440Z,29.60
2022-10-26T23:38:53.023Z,28.10
2022-10-26T23:41:20.665Z,30.50
2022-10-26T23:43:48.283Z,32.00
2022-10-26T23:46:16.160Z,30.40
2022-10-26T23:48:43.880Z,26.80
2022-10-26T23:51:11.640Z,28.50
2022-10-26T23:53:39.212Z,28.40
2022-10-26T23:56:08.020Z,27.50
2022-10-26T23:58:35.622Z,27.70
